sensor_id;sensor_type;location;lat;lon;timestamp;P1;durP1;ratioP1;P2;durP2;ratioP2
57321;SDS011;43159;51.006;18.224;2023-11-21T00:09:21;12.60;;;5.40;;
57321;SDS011;43159;51.006;18.224;2023-11-21T00:19:06;8.80;;;2.90;;
57321;SDS011;43159;51.006;18.224;2023-11-21T00:28:49;24.10;;;6.30;;
57321;SDS011;43159;51.006;18.224;2023-11-21T00:45:58;16.20;;;7.20;;
57321;SDS011;43159;51.006;18.224;2023-11-21T01:10:15;9.50;;;3.60;;
57321;SDS011;43159;51.006;18.224;2023-11-21T01:20:02;9.20;;;3.50;;
57321;SDS011;43159;51.006;18.224;2023-11-21T01:29:45;13.20;;;3.20;;
57321;SDS011;43159;51.006;18.224;2023-11-21T01:39:27;7.60;;;1.60;;
57321;SDS011;43159;51.006;18.224;2023-11-21T01:49:11;7.50;;;2.20;;
57321;SDS011;43159;51.006;18.224;2023-11-21T01:58:58;8.70;;;3.10;;
57321;SDS011;43159;51.006;18.224;2023-11-21T02:08:40;4.10;;;1.70;;
57321;SDS011;43159;51.006;18.224;2023-11-21T02:18:26;9.50;;;2.30;;
57321;SDS011;43159;51.006;18.224;2023-11-21T02:28:12;20.30;;;4.60;;
57321;SDS011;43159;51.006;18.224;2023-11-21T02:38:00;9.30;;;3.00;;
57321;SDS011;43159;51.006;18.224;2023-11-21T02:47:44;10.10;;;2.60;;
57321;SDS011;43159;51.006;18.224;2023-11-21T02:57:29;7.00;;;2.80;;
57321;SDS011;43159;51.006;18.224;2023-11-21T03:07:13;9.50;;;3.40;;
57321;SDS011;43159;51.006;18.224;2023-11-21T03:16:55;6.60;;;2.60;;
57321;SDS011;43159;51.006;18.224;2023-11-21T03:26:38;8.30;;;2.80;;
57321;SDS011;43159;51.006;18.224;2023-11-21T03:36:22;9.50;;;3.50;;
57321;SDS011;43159;51.006;18.224;2023-11-21T03:46:06;11.00;;;5.00;;
57321;SDS011;43159;51.006;18.224;2023-11-21T03:55:49;18.40;;;7.90;;
57321;SDS011;43159;51.006;18.224;2023-11-21T04:05:32;17.70;;;7.70;;
57321;SDS011;43159;51.006;18.224;2023-11-21T04:15:14;9.00;;;3.70;;
57321;SDS011;43159;51.006;18.224;2023-11-21T04:25:02;14.80;;;5.80;;
57321;SDS011;43159;51.006;18.224;2023-11-21T04:34:44;7.70;;;2.50;;
57321;SDS011;43159;51.006;18.224;2023-11-21T04:44:27;76.80;;;15.40;;
57321;SDS011;43159;51.006;18.224;2023-11-21T04:54:09;108.50;;;19.50;;
57321;SDS011;43159;51.006;18.224;2023-11-21T05:03:52;75.90;;;14.30;;
57321;SDS011;43159;51.006;18.224;2023-11-21T05:13:36;16.00;;;4.80;;
57321;SDS011;43159;51.006;18.224;2023-11-21T05:23:21;12.50;;;4.10;;
57321;SDS011;43159;51.006;18.224;2023-11-21T05:33:04;12.70;;;3.90;;
57321;SDS011;43159;51.006;18.224;2023-11-21T05:42:47;13.80;;;3.10;;
57321;SDS011;43159;51.006;18.224;2023-11-21T05:52:32;11.30;;;4.60;;
57321;SDS011;43159;51.006;18.224;2023-11-21T06:02:14;10.10;;;3.90;;
57321;SDS011;43159;51.006;18.224;2023-11-21T06:11:56;11.90;;;5.40;;
57321;SDS011;43159;51.006;18.224;2023-11-21T06:21:38;23.90;;;2.90;;
57321;SDS011;43159;51.006;18.224;2023-11-21T06:31:22;12.10;;;3.70;;
57321;SDS011;43159;51.006;18.224;2023-11-21T06:41:04;13.90;;;3.70;;
57321;SDS011;43159;51.006;18.224;2023-11-21T06:50:47;10.30;;;3.80;;
57321;SDS011;43159;51.006;18.224;2023-11-21T07:00:30;9.70;;;3.10;;
57321;SDS011;43159;51.006;18.224;2023-11-21T07:10:13;11.80;;;4.40;;
57321;SDS011;43159;51.006;18.224;2023-11-21T07:20:00;15.90;;;8.00;;
57321;SDS011;43159;51.006;18.224;2023-11-21T07:29:43;12.60;;;3.80;;
57321;SDS011;43159;51.006;18.224;2023-11-21T07:39:27;11.40;;;4.00;;
57321;SDS011;43159;51.006;18.224;2023-11-21T07:49:09;14.90;;;4.20;;
57321;SDS011;43159;51.006;18.224;2023-11-21T07:58:51;11.90;;;5.10;;
57321;SDS011;43159;51.006;18.224;2023-11-21T08:08:34;9.40;;;3.30;;
57321;SDS011;43159;51.006;18.224;2023-11-21T08:18:22;10.90;;;3.70;;
57321;SDS011;43159;51.006;18.224;2023-11-21T08:28:07;10.20;;;3.50;;
57321;SDS011;43159;51.006;18.224;2023-11-21T08:37:51;7.80;;;3.40;;
57321;SDS011;43159;51.006;18.224;2023-11-21T08:47:38;9.70;;;2.70;;
57321;SDS011;43159;51.006;18.224;2023-11-21T08:57:28;18.80;;;8.30;;
57321;SDS011;43159;51.006;18.224;2023-11-21T09:07:16;15.20;;;6.10;;
57321;SDS011;43159;51.006;18.224;2023-11-21T09:16:59;9.50;;;3.50;;
57321;SDS011;43159;51.006;18.224;2023-11-21T09:26:43;10.30;;;4.40;;
57321;SDS011;43159;51.006;18.224;2023-11-21T09:36:27;10.10;;;3.60;;
57321;SDS011;43159;51.006;18.224;2023-11-21T09:46:15;8.00;;;2.20;;
57321;SDS011;43159;51.006;18.224;2023-11-21T09:56:04;24.30;;;9.40;;
57321;SDS011;43159;51.006;18.224;2023-11-21T10:05:50;32.60;;;14.60;;
57321;SDS011;43159;51.006;18.224;2023-11-21T10:15:38;28.50;;;14.10;;
57321;SDS011;43159;51.006;18.224;2023-11-21T10:25:22;29.80;;;14.10;;
57321;SDS011;43159;51.006;18.224;2023-11-21T10:35:08;8.40;;;3.40;;
57321;SDS011;43159;51.006;18.224;2023-11-21T10:45:06;30.90;;;12.80;;
57321;SDS011;43159;51.006;18.224;2023-11-21T10:54:56;32.10;;;14.50;;
57321;SDS011;43159;51.006;18.224;2023-11-21T11:04:47;39.60;;;15.20;;
57321;SDS011;43159;51.006;18.224;2023-11-21T11:14:31;15.60;;;7.10;;
57321;SDS011;43159;51.006;18.224;2023-11-21T11:24:20;22.30;;;10.60;;
57321;SDS011;43159;51.006;18.224;2023-11-21T11:34:56;21.80;;;9.10;;
57321;SDS011;43159;51.006;18.224;2023-11-21T11:44:47;16.10;;;5.20;;
57321;SDS011;43159;51.006;18.224;2023-11-21T11:55:02;14.80;;;3.10;;
57321;SDS011;43159;51.006;18.224;2023-11-21T12:05:17;15.90;;;7.30;;
57321;SDS011;43159;51.006;18.224;2023-11-21T12:15:19;32.80;;;11.50;;
57321;SDS011;43159;51.006;18.224;2023-11-21T12:25:09;27.50;;;11.40;;
57321;SDS011;43159;51.006;18.224;2023-11-21T12:34:52;22.20;;;9.50;;
57321;SDS011;43159;51.006;18.224;2023-11-21T12:44:35;13.10;;;4.90;;
57321;SDS011;43159;51.006;18.224;2023-11-21T12:54:19;45.40;;;19.90;;
57321;SDS011;43159;51.006;18.224;2023-11-21T13:04:07;27.70;;;12.90;;
57321;SDS011;43159;51.006;18.224;2023-11-21T13:14:02;39.30;;;18.00;;
57321;SDS011;43159;51.006;18.224;2023-11-21T13:23:47;39.10;;;18.60;;
57321;SDS011;43159;51.006;18.224;2023-11-21T13:33:56;21.20;;;9.60;;
57321;SDS011;43159;51.006;18.224;2023-11-21T13:43:43;18.10;;;7.60;;
57321;SDS011;43159;51.006;18.224;2023-11-21T13:53:46;10.30;;;4.80;;
57321;SDS011;43159;51.006;18.224;2023-11-21T14:03:59;17.50;;;5.50;;
57321;SDS011;43159;51.006;18.224;2023-11-21T14:14:21;23.20;;;5.40;;
57321;SDS011;43159;51.006;18.224;2023-11-21T14:24:09;18.10;;;8.40;;
57321;SDS011;43159;51.006;18.224;2023-11-21T14:33:53;10.70;;;5.50;;
57321;SDS011;43159;51.006;18.224;2023-11-21T14:43:36;17.50;;;7.50;;
57321;SDS011;43159;51.006;18.224;2023-11-21T14:53:56;11.40;;;5.20;;
57321;SDS011;43159;51.006;18.224;2023-11-21T14:59:00;23.30;;;10.40;;
57321;SDS011;43159;51.006;18.224;2023-11-21T15:09:28;16.30;;;7.30;;
57321;SDS011;43159;51.006;18.224;2023-11-21T15:19:32;15.30;;;7.50;;
57321;SDS011;43159;51.006;18.224;2023-11-21T15:29:16;16.40;;;8.60;;
57321;SDS011;43159;51.006;18.224;2023-11-21T15:39:09;24.60;;;9.40;;
57321;SDS011;43159;51.006;18.224;2023-11-21T15:48:56;23.20;;;12.70;;
57321;SDS011;43159;51.006;18.224;2023-11-21T15:58:38;24.30;;;11.60;;
57321;SDS011;43159;51.006;18.224;2023-11-21T16:08:30;19.50;;;8.30;;
57321;SDS011;43159;51.006;18.224;2023-11-21T16:18:14;3.80;;;2.00;;
57321;SDS011;43159;51.006;18.224;2023-11-21T16:28:00;16.50;;;8.80;;
57321;SDS011;43159;51.006;18.224;2023-11-21T16:37:50;16.00;;;7.20;;
57321;SDS011;43159;51.006;18.224;2023-11-21T16:47:35;23.10;;;11.30;;
57321;SDS011;43159;51.006;18.224;2023-11-21T16:57:20;25.40;;;9.20;;
57321;SDS011;43159;51.006;18.224;2023-11-21T17:07:10;21.50;;;10.00;;
57321;SDS011;43159;51.006;18.224;2023-11-21T17:17:08;22.90;;;10.60;;
57321;SDS011;43159;51.006;18.224;2023-11-21T17:26:54;15.40;;;9.10;;
57321;SDS011;43159;51.006;18.224;2023-11-21T17:36:37;24.20;;;9.90;;
57321;SDS011;43159;51.006;18.224;2023-11-21T17:46:28;24.80;;;11.60;;
57321;SDS011;43159;51.006;18.224;2023-11-21T17:56:18;16.80;;;6.70;;
57321;SDS011;43159;51.006;18.224;2023-11-21T18:06:01;12.00;;;6.30;;
57321;SDS011;43159;51.006;18.224;2023-11-21T18:15:44;19.90;;;8.60;;
57321;SDS011;43159;51.006;18.224;2023-11-21T18:25:26;27.60;;;11.80;;
57321;SDS011;43159;51.006;18.224;2023-11-21T18:35:12;15.70;;;8.10;;
57321;SDS011;43159;51.006;18.224;2023-11-21T18:44:55;27.60;;;11.40;;
57321;SDS011;43159;51.006;18.224;2023-11-21T18:54:43;14.70;;;7.40;;
57321;SDS011;43159;51.006;18.224;2023-11-21T19:04:28;21.90;;;13.40;;
57321;SDS011;43159;51.006;18.224;2023-11-21T19:14:20;17.20;;;9.80;;
57321;SDS011;43159;51.006;18.224;2023-11-21T19:24:06;34.70;;;16.80;;
57321;SDS011;43159;51.006;18.224;2023-11-21T19:33:48;31.00;;;13.60;;
57321;SDS011;43159;51.006;18.224;2023-11-21T19:43:42;40.30;;;19.20;;
57321;SDS011;43159;51.006;18.224;2023-11-21T19:53:27;25.80;;;12.10;;
57321;SDS011;43159;51.006;18.224;2023-11-21T20:03:12;29.80;;;15.10;;
57321;SDS011;43159;51.006;18.224;2023-11-21T20:12:55;36.90;;;15.90;;
57321;SDS011;43159;51.006;18.224;2023-11-21T20:22:42;31.30;;;13.30;;
57321;SDS011;43159;51.006;18.224;2023-11-21T20:32:28;26.50;;;13.80;;
57321;SDS011;43159;51.006;18.224;2023-11-21T20:42:13;31.00;;;14.20;;
57321;SDS011;43159;51.006;18.224;2023-11-21T20:51:58;21.00;;;8.30;;
57321;SDS011;43159;51.006;18.224;2023-11-21T21:01:40;19.10;;;10.10;;
57321;SDS011;43159;51.006;18.224;2023-11-21T21:11:30;31.60;;;15.60;;
57321;SDS011;43159;51.006;18.224;2023-11-21T21:21:17;25.80;;;11.20;;
57321;SDS011;43159;51.006;18.224;2023-11-21T21:31:02;43.00;;;17.20;;
57321;SDS011;43159;51.006;18.224;2023-11-21T21:40:44;16.50;;;6.10;;
57321;SDS011;43159;51.006;18.224;2023-11-21T21:50:29;29.20;;;13.80;;
57321;SDS011;43159;51.006;18.224;2023-11-21T22:00:12;34.50;;;13.50;;
57321;SDS011;43159;51.006;18.224;2023-11-21T22:10:09;26.60;;;11.10;;
57321;SDS011;43159;51.006;18.224;2023-11-21T22:19:55;50.90;;;11.10;;
57321;SDS011;43159;51.006;18.224;2023-11-21T22:29:42;30.80;;;13.90;;
57321;SDS011;43159;51.006;18.224;2023-11-21T22:39:24;24.30;;;11.80;;
57321;SDS011;43159;51.006;18.224;2023-11-21T22:49:08;22.20;;;9.70;;
57321;SDS011;43159;51.006;18.224;2023-11-21T22:58:51;31.10;;;13.80;;
57321;SDS011;43159;51.006;18.224;2023-11-21T23:08:40;33.40;;;16.30;;
57321;SDS011;43159;51.006;18.224;2023-11-21T23:18:24;44.10;;;12.40;;
57321;SDS011;43159;51.006;18.224;2023-11-21T23:28:15;28.70;;;14.40;;
57321;SDS011;43159;51.006;18.224;2023-11-21T23:38:04;35.50;;;17.40;;
57321;SDS011;43159;51.006;18.224;2023-11-21T23:47:46;34.00;;;10.70;;
57321;SDS011;43159;51.006;18.224;2023-11-21T23:57:29;34.50;;;17.20;;
